McAllen, TX

2:58 PM CDT on August 04, 2015 (GMT -0500)
McAllen Miller International | | Change Station
CLOSE
Current Station
Airport
Location: McAllen,
Elevation: 105 ft
Nearby Weather Stations

Elev 105 ft 26.18 °N, 98.24 °W | Updated 5 minutes ago

Clear
Clear
103 °F
Feels Like 113 °F
N
15
Wind Variable Wind from SE
Gusts 26 mph

Today
High -- | Low -- °F
--% Chance of Precip.
Yesterday
High -- | Low -- °F
Precip. -- in
7:00 AM 8:17 PM
Waning Gibbous, 75% visible
Pressure 29.87 in
Visibility 10.0 miles
Clouds Few 6000 ft
Heat Index 113 °F
Dew Point 72 °F
Humidity 37%
Rainfall 0.00 in
Snow Depth Not available.
UV 11 out of 12
Pollen 5.90 out of 12
Air Quality Not available.
Flu Activity Not available.
METAR KMFE 041953Z 13013G23KT 10SM FEW060 39/22 A2988 RMK AO2 SLP114 T03940222

More Conditions Fewer Conditions

Pressure 29.87 in
Visibility 10.0 miles
Clouds Few 6000 ft
Heat Index 113 °F
Dew Point 72 °F
Humidity 37%
Rainfall 0.00 in
Snow Depth Not available.
UV 11 out of 12
Pollen 5.90 out of 12
Air Quality Not available.
Flu Activity Not available.
METAR KMFE 041953Z 13013G23KT 10SM FEW060 39/22 A2988 RMK AO2 SLP114 T03940222

More Conditions Fewer Conditions

10-Day Weather Forecast

×

Almanac

Astronomy

Aug. 04, 2015 Rise Set
Actual Time
Civil Twilight
Nautical Twilight
Astronomical Twilight
Moon
Length of Visible Light
Length of Day
Tomorrow will be .
, % of the Moon is Illuminated

Today's Extremes

State Highs State Lows

Community

WunderPhotos

Upload Photos

1,843,956 photos uploaded!

WunderBlogs® & News

Nearby

Air Quality

  Air Quality AQ Index Pollutant
Not available.

Snow Depth

Station Depth Elevation

Earthquake Activity

City Distance Mag. Time & Date
Minimum magnitude displayed is 2.5.

Coastal Water Temperatures

Place Temperature

Stations

Nearby Weather Stations

Station Location Temp. Windchill Dew Point Humidity Wind Precip. Elev Updated Type